Time;durP1;ratioP1;P1;durP2;ratioP2;P2;SDS_P1;SDS_P2;PMS_P1;PMS_P2;Temp;Humidity;BMP_temperature;BMP_pressure;BME280_temperature;BME280_humidity;BME280_pressure;Samples;Min_cycle;Max_cycle;Signal;HPM_P1;HPM_P2
2023/08/12 00:08:45;;;;;;;;;;;;;;;22.49;80.56;101761.78;21022374;28;19923;-65
2023/08/12 00:19:08;;;;;;;;;;;;;;;22.39;81.43;101759.84;21008181;28;19928;-64
2023/08/12 00:29:29;;;;;;;;;;;;;;;22.31;81.99;101781.44;21030524;28;19924;-65
2023/08/12 00:39:51;;;;;;;;;;;;;;;22.29;81.89;101793.88;21019830;28;19924;-65
2023/08/12 00:50:14;;;;;;;;;;;;;;;22.29;82.41;101799.13;21019461;28;19935;-65
2023/08/12 01:00:35;;;;;;;;;;;;;;;22.14;82.88;101797.47;21006143;28;19924;-65
2023/08/12 01:11:10;;;;;;;;;;;;;;;22.03;83.60;101807.81;21010161;28;19981;-65
2023/08/12 01:21:33;;;;;;;;;;;;;;;21.93;87.74;101814.63;21018296;28;20535;-66
2023/08/12 01:32:13;;;;;;;;;;;;;;;21.74;89.30;101814.00;21012658;28;20020;-66
2023/08/12 01:42:35;;;;;;;;;;;;;;;21.62;97.29;101814.75;21011585;28;19927;-66
2023/08/12 01:52:57;;;;;;;;;;;;;;;21.44;94.30;101794.78;21018019;28;20403;-67
2023/08/12 02:03:19;;;;;;;;;;;;;;;21.32;98.37;101779.69;21013364;28;19924;-68
2023/08/12 02:13:40;;;;;;;;;;;;;;;21.23;98.06;101760.03;21011422;28;19928;-67
2023/08/12 02:24:02;;;;;;;;;;;;;;;21.02;95.54;101741.06;20997051;28;19934;-67
2023/08/12 02:34:23;;;;;;;;;;;;;;;20.93;98.06;101719.69;21005428;28;19942;-67
2023/08/12 02:44:45;;;;;;;;;;;;;;;20.88;98.73;101706.78;20999562;28;19936;-67
2023/08/12 02:55:06;;;;;;;;;;;;;;;20.90;98.77;101698.81;20995420;28;19924;-67
2023/08/12 03:05:28;;;;;;;;;;;;;;;20.84;98.67;101705.28;20991843;28;19932;-68
2023/08/12 03:15:49;;;;;;;;;;;;;;;20.81;100.00;101692.31;20998993;28;20294;-67
2023/08/12 03:26:11;;;;;;;;;;;;;;;20.69;100.00;101694.81;20999972;28;20331;-67
2023/08/12 03:36:33;;;;;;;;;;;;;;;20.66;100.00;101674.78;21020904;28;19924;-67
2023/08/12 03:46:54;;;;;;;;;;;;;;;20.57;100.00;101654.28;21007198;28;19938;-67
2023/08/12 03:57:16;;;;;;;;;;;;;;;20.63;100.00;101653.91;21009865;28;20641;-68
2023/08/12 04:07:37;;;;;;;;;;;;;;;20.65;100.00;101657.31;21001291;28;19932;-68
2023/08/12 04:17:58;;;;;;;;;;;;;;;20.64;100.00;101663.50;21005914;28;19931;-68
2023/08/12 04:28:20;;;;;;;;;;;;;;;20.64;100.00;101660.84;21016116;28;20023;-68
2023/08/12 04:38:41;;;;;;;;;;;;;;;20.60;100.00;101654.06;21023483;28;19928;-68
2023/08/12 04:49:03;;;;;;;;;;;;;;;20.61;100.00;101655.78;21011052;28;19932;-68
2023/08/12 04:59:25;;;;;;;;;;;;;;;20.60;100.00;101653.25;21019692;28;19938;-68
2023/08/12 05:09:46;;;;;;;;;;;;;;;20.65;100.00;101638.03;21014584;28;19931;-68
2023/08/12 05:20:08;;;;;;;;;;;;;;;20.73;100.00;101626.13;21013543;28;20011;-68
2023/08/12 05:30:29;;;;;;;;;;;;;;;20.86;100.00;101623.59;21017521;28;20031;-67
2023/08/12 05:40:51;;;;;;;;;;;;;;;20.95;100.00;101613.38;21006945;28;19923;-68
2023/08/12 05:51:12;;;;;;;;;;;;;;;21.01;100.00;101627.97;21015147;28;20272;-67
2023/08/12 06:01:34;;;;;;;;;;;;;;;20.96;100.00;101620.34;21006115;28;19928;-68
2023/08/12 06:11:55;;;;;;;;;;;;;;;21.04;100.00;101617.28;21012302;28;20702;-66
2023/08/12 06:22:17;;;;;;;;;;;;;;;21.07;100.00;101616.22;21011743;28;19924;-67
2023/08/12 06:32:38;;;;;;;;;;;;;;;21.16;100.00;101602.50;21023332;28;19931;-66
2023/08/12 06:43:00;;;;;;;;;;;;;;;21.18;100.00;101598.00;21023929;28;19932;-67
2023/08/12 06:53:22;;;;;;;;;;;;;;;21.26;100.00;101577.31;21010518;28;19929;-67
2023/08/12 07:03:44;;;;;;;;;;;;;;;21.34;100.00;101562.72;21013602;28;20002;-67
2023/08/12 07:14:05;;;;;;;;;;;;;;;21.46;100.00;101569.00;21029715;28;19935;-66
2023/08/12 07:24:27;;;;;;;;;;;;;;;21.51;100.00;101565.13;20988700;28;20395;-67
2023/08/12 07:34:48;;;;;;;;;;;;;;;21.58;100.00;101555.03;21009136;28;20279;-67
2023/08/12 07:45:10;;;;;;;;;;;;;;;21.68;100.00;101556.16;21012513;28;19930;-67
2023/08/12 07:55:31;;;;;;;;;;;;;;;21.79;100.00;101558.97;21003470;28;19952;-67
2023/08/12 08:05:53;;;;;;;;;;;;;;;21.81;100.00;101563.19;21001024;28;19924;-67
2023/08/12 08:16:14;;;;;;;;;;;;;;;21.86;100.00;101555.00;21018748;28;20319;-67
2023/08/12 08:26:36;;;;;;;;;;;;;;;21.96;99.18;101551.66;21027214;28;19931;-67
2023/08/12 08:36:57;;;;;;;;;;;;;;;22.00;97.90;101547.03;21015690;28;20343;-67
2023/08/12 08:47:22;;;;;;;;;;;;;;;22.02;99.24;101539.00;21013983;28;19924;-67
2023/08/12 08:57:44;;;;;;;;;;;;;;;21.98;98.50;101536.56;21014156;28;19924;-67
2023/08/12 09:08:10;;;;;;;;;;;;;;;21.93;97.89;101536.03;21021275;28;19947;-66
2023/08/12 09:18:32;;;;;;;;;;;;;;;21.88;98.79;101511.75;21028663;28;19924;-67
2023/08/12 09:28:53;;;;;;;;;;;;;;;21.75;100.00;101520.56;20992837;28;19932;-68
2023/08/12 09:39:16;;;;;;;;;;;;;;;21.71;100.00;101497.97;21014462;28;19940;-67
2023/08/12 09:49:38;;;;;;;;;;;;;;;21.62;100.00;101482.78;21008806;28;19929;-68
2023/08/12 10:00:00;;;;;;;;;;;;;;;21.56;100.00;101485.78;21008099;28;19924;-67
2023/08/12 10:10:24;;;;;;;;;;;;;;;21.58;100.00;101479.50;21018016;28;19930;-67
2023/08/12 10:20:47;;;;;;;;;;;;;;;21.57;100.00;101479.59;21032621;28;20421;-68
2023/08/12 10:31:10;;;;;;;;;;;;;;;21.62;100.00;101466.97;21008226;28;19925;-68
2023/08/12 10:41:35;;;;;;;;;;;;;;;21.72;100.00;101460.13;21007168;28;20001;-68
2023/08/12 10:51:57;;;;;;;;;;;;;;;21.68;100.00;101461.31;21007817;28;19928;-68
2023/08/12 11:02:18;;;;;;;;;;;;;;;21.62;100.00;101445.88;21014891;28;20440;-67
2023/08/12 11:12:42;;;;;;;;;;;;;;;21.72;100.00;101437.25;21001779;28;20342;-67
2023/08/12 11:23:04;;;;;;;;;;;;;;;21.76;100.00;101435.25;20983619;28;19928;-68
2023/08/12 11:33:25;;;;;;;;;;;;;;;21.78;100.00;101409.66;21023567;28;19942;-68
2023/08/12 11:43:47;;;;;;;;;;;;;;;22.00;100.00;101402.03;21021682;28;19927;-67
2023/08/12 11:54:09;;;;;;;;;;;;;;;22.04;100.00;101368.38;21018751;28;19932;-68
2023/08/12 12:04:31;;;;;;;;;;;;;;;22.13;100.00;101363.31;21017905;28;20019;-67
2023/08/12 12:14:54;;;;;;;;;;;;;;;22.20;100.00;101348.75;21017435;28;20306;-67
2023/08/12 12:25:18;;;;;;;;;;;;;;;22.26;100.00;101321.97;21031956;28;20014;-67
2023/08/12 12:35:40;;;;;;;;;;;;;;;22.23;100.00;101326.59;21010935;28;19928;-67
2023/08/12 12:46:17;;;;;;;;;;;;;;;22.30;100.00;101297.06;21021417;28;19924;-67
2023/08/12 12:56:39;;;;;;;;;;;;;;;22.12;100.00;101277.28;21018802;28;19978;-68
2023/08/12 13:07:00;;;;;;;;;;;;;;;22.20;100.00;101269.63;21031916;28;19928;-68
2023/08/12 13:17:22;;;;;;;;;;;;;;;22.06;100.00;101271.56;21010953;28;19931;-67
2023/08/12 13:27:43;;;;;;;;;;;;;;;21.79;98.42;101316.53;21026711;28;20343;-67
2023/08/12 13:38:05;;;;;;;;;;;;;;;21.14;98.98;101349.00;21001630;28;19932;-66
2023/08/12 13:48:27;;;;;;;;;;;;;;;21.02;100.00;101354.13;21010503;28;19939;-66
2023/08/12 13:58:48;;;;;;;;;;;;;;;21.57;98.65;101375.03;21009257;28;19929;-63
2023/08/12 14:09:12;;;;;;;;;;;;;;;21.62;97.29;101388.78;21021013;28;19970;-66
2023/08/12 14:19:33;;;;;;;;;;;;;;;21.71;93.54;101408.38;21021044;28;19928;-65
2023/08/12 14:29:55;;;;;;;;;;;;;;;21.81;95.19;101415.59;21017009;28;19932;-66
2023/08/12 14:40:16;;;;;;;;;;;;;;;22.24;94.01;101418.81;21011459;28;19928;-66
2023/08/12 14:50:38;;;;;;;;;;;;;;;22.44;91.55;101404.22;21004951;28;19925;-65
2023/08/12 15:01:00;;;;;;;;;;;;;;;22.51;90.18;101421.31;21023068;28;20508;-65
2023/08/12 15:11:22;;;;;;;;;;;;;;;22.72;89.93;101431.25;21012027;28;19938;-65
2023/08/12 15:21:44;;;;;;;;;;;;;;;22.90;86.70;101415.88;21011168;28;20010;-65
2023/08/12 15:32:05;;;;;;;;;;;;;;;22.70;86.59;101427.88;20998109;28;19924;-66
2023/08/12 15:42:27;;;;;;;;;;;;;;;22.52;88.52;101434.41;21009692;28;19968;-65
2023/08/12 15:52:48;;;;;;;;;;;;;;;22.44;88.86;101442.00;21011765;28;19928;-65
2023/08/12 16:03:10;;;;;;;;;;;;;;;22.44;86.09;101447.28;21013058;28;20300;-65
2023/08/12 16:13:31;;;;;;;;;;;;;;;22.28;83.54;101457.22;21004386;28;19932;-65
2023/08/12 16:23:53;;;;;;;;;;;;;;;22.36;78.28;101496.25;21013731;28;19956;-65
2023/08/12 16:34:14;;;;;;;;;;;;;;;22.32;78.37;101492.97;21013246;28;19932;-66
2023/08/12 16:44:36;;;;;;;;;;;;;;;22.45;77.89;101500.91;21022445;28;20616;-65
2023/08/12 16:54:58;;;;;;;;;;;;;;;22.16;79.02;101499.41;21017222;28;19939;-66
2023/08/12 17:05:20;;;;;;;;;;;;;;;22.21;79.28;101505.19;21027618;28;19931;-66
2023/08/12 17:15:41;;;;;;;;;;;;;;;22.21;79.44;101508.69;21002179;28;19935;-65
2023/08/12 17:26:06;;;;;;;;;;;;;;;22.21;79.75;101519.25;21007652;28;20276;-65
2023/08/12 17:36:30;;;;;;;;;;;;;;;22.29;80.59;101532.72;21009642;28;20317;-65
2023/08/12 17:46:51;;;;;;;;;;;;;;;22.12;81.53;101535.69;21001134;28;19924;-65
2023/08/12 17:57:12;;;;;;;;;;;;;;;21.90;85.75;101545.94;21014790;28;19939;-66
2023/08/12 18:07:34;;;;;;;;;;;;;;;21.77;87.73;101560.84;21028009;28;19928;-66
2023/08/12 18:17:56;;;;;;;;;;;;;;;21.62;88.28;101577.63;21008030;28;19924;-65
2023/08/12 18:28:17;;;;;;;;;;;;;;;21.50;88.49;101591.59;21002359;28;20016;-65
2023/08/12 18:38:39;;;;;;;;;;;;;;;21.30;90.43;101586.72;21006213;28;19938;-66
2023/08/12 18:49:01;;;;;;;;;;;;;;;21.13;90.70;101605.34;21011226;28;19936;-66
2023/08/12 18:59:23;;;;;;;;;;;;;;;20.97;90.69;101611.50;21004865;28;20627;-66
2023/08/12 19:09:45;;;;;;;;;;;;;;;20.82;92.17;101617.69;21005932;28;21965;-66
2023/08/12 19:20:07;;;;;;;;;;;;;;;20.66;91.61;101627.41;21030327;28;19924;-65
2023/08/12 19:30:28;;;;;;;;;;;;;;;20.52;92.80;101637.91;21008049;28;19928;-66
2023/08/12 19:40:51;;;;;;;;;;;;;;;20.39;93.18;101651.84;21010353;28;20284;-66
2023/08/12 19:51:13;;;;;;;;;;;;;;;20.29;93.03;101653.31;21024948;28;20019;-66
2023/08/12 20:01:34;;;;;;;;;;;;;;;20.19;93.44;101658.25;21004439;28;19928;-66
2023/08/12 20:11:56;;;;;;;;;;;;;;;20.12;92.95;101666.53;21023177;28;20305;-66
2023/08/12 20:22:17;;;;;;;;;;;;;;;19.99;93.45;101679.50;21019725;28;20011;-65
2023/08/12 20:32:39;;;;;;;;;;;;;;;19.90;92.87;101677.41;21018085;28;19935;-65
2023/08/12 20:43:01;;;;;;;;;;;;;;;19.70;92.72;101675.88;21010526;28;19928;-66
2023/08/12 20:53:23;;;;;;;;;;;;;;;19.57;92.55;101677.44;21001915;28;19924;-66
2023/08/12 21:03:44;;;;;;;;;;;;;;;19.38;92.22;101683.75;21019531;28;20312;-66
2023/08/12 21:14:06;;;;;;;;;;;;;;;19.27;91.61;101691.28;21017327;28;19934;-66
2023/08/12 21:24:27;;;;;;;;;;;;;;;19.20;90.02;101689.91;21021281;28;19924;-65
2023/08/12 21:34:49;;;;;;;;;;;;;;;19.05;90.77;101681.91;21013531;28;19928;-66
2023/08/12 21:45:10;;;;;;;;;;;;;;;18.93;91.39;101690.44;21017779;28;20448;-65
2023/08/12 21:55:32;;;;;;;;;;;;;;;18.82;91.13;101678.78;21004508;28;19928;-66
2023/08/12 22:05:53;;;;;;;;;;;;;;;18.70;90.71;101667.13;21003061;28;20547;-65
2023/08/12 22:16:15;;;;;;;;;;;;;;;18.62;91.03;101676.31;21005408;28;20125;-66
2023/08/12 22:26:36;;;;;;;;;;;;;;;18.51;91.28;101676.84;21015161;28;19934;-65
2023/08/12 22:36:58;;;;;;;;;;;;;;;18.41;92.38;101667.72;20993770;28;19934;-65
2023/08/12 22:47:20;;;;;;;;;;;;;;;18.30;92.43;101664.72;21001404;28;19934;-66
2023/08/12 22:57:41;;;;;;;;;;;;;;;18.21;93.31;101656.47;21003953;28;20429;-65
2023/08/12 23:08:03;;;;;;;;;;;;;;;18.08;93.30;101653.56;21004174;28;19929;-66
2023/08/12 23:18:25;;;;;;;;;;;;;;;17.98;93.33;101661.03;21006965;28;19935;-66
2023/08/12 23:28:46;;;;;;;;;;;;;;;17.89;93.63;101663.25;20996778;28;19924;-66
2023/08/12 23:39:09;;;;;;;;;;;;;;;17.78;92.71;101661.09;21004312;28;19928;-66
2023/08/12 23:49:32;;;;;;;;;;;;;;;17.78;91.65;101660.28;20995120;28;19977;-66
2023/08/12 23:59:53;;;;;;;;;;;;;;;17.80;90.81;101663.69;21011016;28;19925;-66
